sensor_id;sensor_type;location;lat;lon;timestamp;P1;durP1;ratioP1;P2;durP2;ratioP2
84996;SDS011;75312;47.528;19.016;2024-02-26T00:00:14;35.37;;;32.73;;
84996;SDS011;75312;47.528;19.016;2024-02-26T00:00:48;35.20;;;32.60;;
84996;SDS011;75312;47.528;19.016;2024-02-26T00:01:18;35.93;;;33.13;;
84996;SDS011;75312;47.528;19.016;2024-02-26T00:01:49;37.60;;;34.40;;
84996;SDS011;75312;47.528;19.016;2024-02-26T00:02:25;37.90;;;34.70;;
84996;SDS011;75312;47.528;19.016;2024-02-26T00:02:56;37.03;;;33.70;;
84996;SDS011;75312;47.528;19.016;2024-02-26T00:03:26;37.43;;;34.00;;
84996;SDS011;75312;47.528;19.016;2024-02-26T00:03:59;37.23;;;34.30;;
84996;SDS011;75312;47.528;19.016;2024-02-26T00:04:32;36.60;;;33.90;;
84996;SDS011;75312;47.528;19.016;2024-02-26T00:05:04;35.53;;;32.93;;
84996;SDS011;75312;47.528;19.016;2024-02-26T00:05:36;36.50;;;34.03;;
84996;SDS011;75312;47.528;19.016;2024-02-26T00:06:09;37.47;;;35.03;;
84996;SDS011;75312;47.528;19.016;2024-02-26T00:06:39;36.37;;;34.10;;
84996;SDS011;75312;47.528;19.016;2024-02-26T00:07:12;36.10;;;33.60;;
84996;SDS011;75312;47.528;19.016;2024-02-26T00:07:43;35.07;;;32.60;;
84996;SDS011;75312;47.528;19.016;2024-02-26T00:08:15;35.83;;;33.53;;
84996;SDS011;75312;47.528;19.016;2024-02-26T00:08:47;36.23;;;33.87;;
84996;SDS011;75312;47.528;19.016;2024-02-26T00:09:23;35.50;;;33.10;;
84996;SDS011;75312;47.528;19.016;2024-02-26T00:09:58;35.47;;;33.30;;
84996;SDS011;75312;47.528;19.016;2024-02-26T00:10:31;34.70;;;32.53;;
84996;SDS011;75312;47.528;19.016;2024-02-26T00:11:02;34.23;;;31.87;;
84996;SDS011;75312;47.528;19.016;2024-02-26T00:11:32;34.53;;;32.10;;
84996;SDS011;75312;47.528;19.016;2024-02-26T00:12:06;33.70;;;31.37;;
84996;SDS011;75312;47.528;19.016;2024-02-26T00:12:37;34.07;;;31.63;;
84996;SDS011;75312;47.528;19.016;2024-02-26T00:13:09;34.50;;;32.23;;
84996;SDS011;75312;47.528;19.016;2024-02-26T00:13:42;34.47;;;32.30;;
84996;SDS011;75312;47.528;19.016;2024-02-26T00:14:13;33.30;;;31.43;;
84996;SDS011;75312;47.528;19.016;2024-02-26T00:14:46;33.37;;;31.57;;
84996;SDS011;75312;47.528;19.016;2024-02-26T00:15:21;32.43;;;30.70;;
84996;SDS011;75312;47.528;19.016;2024-02-26T00:15:51;31.93;;;30.03;;
84996;SDS011;75312;47.528;19.016;2024-02-26T00:16:25;33.57;;;31.43;;
84996;SDS011;75312;47.528;19.016;2024-02-26T00:16:55;34.07;;;31.77;;
84996;SDS011;75312;47.528;19.016;2024-02-26T00:17:26;34.37;;;32.07;;
84996;SDS011;75312;47.528;19.016;2024-02-26T00:17:59;33.40;;;31.20;;
84996;SDS011;75312;47.528;19.016;2024-02-26T00:18:30;35.43;;;32.97;;
84996;SDS011;75312;47.528;19.016;2024-02-26T00:19:00;35.43;;;32.57;;
84996;SDS011;75312;47.528;19.016;2024-02-26T00:19:34;33.57;;;30.93;;
84996;SDS011;75312;47.528;19.016;2024-02-26T00:20:07;33.07;;;30.80;;
84996;SDS011;75312;47.528;19.016;2024-02-26T00:20:40;32.83;;;30.87;;
84996;SDS011;75312;47.528;19.016;2024-02-26T00:21:13;32.90;;;30.93;;
84996;SDS011;75312;47.528;19.016;2024-02-26T00:21:43;31.73;;;30.00;;
84996;SDS011;75312;47.528;19.016;2024-02-26T00:22:16;33.23;;;31.30;;
84996;SDS011;75312;47.528;19.016;2024-02-26T00:22:49;31.77;;;30.00;;
84996;SDS011;75312;47.528;19.016;2024-02-26T00:23:22;31.43;;;29.90;;
84996;SDS011;75312;47.528;19.016;2024-02-26T00:23:55;30.90;;;29.27;;
84996;SDS011;75312;47.528;19.016;2024-02-26T00:24:26;33.10;;;30.93;;
84996;SDS011;75312;47.528;19.016;2024-02-26T00:24:56;33.03;;;31.07;;
84996;SDS011;75312;47.528;19.016;2024-02-26T00:25:29;32.90;;;30.97;;
84996;SDS011;75312;47.528;19.016;2024-02-26T00:26:02;33.07;;;30.90;;
84996;SDS011;75312;47.528;19.016;2024-02-26T00:26:33;32.87;;;30.47;;
84996;SDS011;75312;47.528;19.016;2024-02-26T00:27:04;32.93;;;30.40;;
84996;SDS011;75312;47.528;19.016;2024-02-26T00:27:35;33.43;;;30.93;;
84996;SDS011;75312;47.528;19.016;2024-02-26T00:28:05;34.67;;;31.73;;
84996;SDS011;75312;47.528;19.016;2024-02-26T00:28:36;34.43;;;31.63;;
84996;SDS011;75312;47.528;19.016;2024-02-26T00:29:07;32.30;;;30.17;;
84996;SDS011;75312;47.528;19.016;2024-02-26T00:29:42;33.03;;;30.53;;
84996;SDS011;75312;47.528;19.016;2024-02-26T00:30:13;32.40;;;30.07;;
84996;SDS011;75312;47.528;19.016;2024-02-26T00:30:44;31.63;;;29.33;;
84996;SDS011;75312;47.528;19.016;2024-02-26T00:31:14;31.77;;;29.53;;
84996;SDS011;75312;47.528;19.016;2024-02-26T00:31:48;31.87;;;29.87;;
84996;SDS011;75312;47.528;19.016;2024-02-26T00:32:19;30.43;;;28.77;;
84996;SDS011;75312;47.528;19.016;2024-02-26T00:32:49;28.67;;;27.37;;
84996;SDS011;75312;47.528;19.016;2024-02-26T00:33:20;30.23;;;29.00;;
84996;SDS011;75312;47.528;19.016;2024-02-26T00:33:50;30.23;;;28.80;;
84996;SDS011;75312;47.528;19.016;2024-02-26T00:34:21;29.87;;;28.33;;
84996;SDS011;75312;47.528;19.016;2024-02-26T00:34:52;29.33;;;27.80;;
84996;SDS011;75312;47.528;19.016;2024-02-26T00:35:22;29.47;;;28.10;;
84996;SDS011;75312;47.528;19.016;2024-02-26T00:35:53;29.93;;;28.53;;
84996;SDS011;75312;47.528;19.016;2024-02-26T00:36:23;28.97;;;27.53;;
84996;SDS011;75312;47.528;19.016;2024-02-26T00:36:54;28.93;;;27.23;;
84996;SDS011;75312;47.528;19.016;2024-02-26T00:37:24;28.73;;;27.10;;
84996;SDS011;75312;47.528;19.016;2024-02-26T00:37:55;28.23;;;26.57;;
84996;SDS011;75312;47.528;19.016;2024-02-26T00:38:25;29.23;;;27.50;;
84996;SDS011;75312;47.528;19.016;2024-02-26T00:38:56;28.60;;;26.83;;
84996;SDS011;75312;47.528;19.016;2024-02-26T00:39:29;28.10;;;26.47;;
84996;SDS011;75312;47.528;19.016;2024-02-26T00:39:59;28.17;;;26.37;;
84996;SDS011;75312;47.528;19.016;2024-02-26T00:40:35;28.70;;;26.90;;
84996;SDS011;75312;47.528;19.016;2024-02-26T00:41:11;30.93;;;28.83;;
84996;SDS011;75312;47.528;19.016;2024-02-26T00:41:44;29.90;;;27.67;;
84996;SDS011;75312;47.528;19.016;2024-02-26T00:42:15;28.57;;;26.50;;
84996;SDS011;75312;47.528;19.016;2024-02-26T00:42:45;28.30;;;26.53;;
84996;SDS011;75312;47.528;19.016;2024-02-26T00:43:17;28.67;;;27.00;;
84996;SDS011;75312;47.528;19.016;2024-02-26T00:43:48;28.03;;;26.60;;
84996;SDS011;75312;47.528;19.016;2024-02-26T00:44:18;27.57;;;25.97;;
84996;SDS011;75312;47.528;19.016;2024-02-26T00:44:51;27.50;;;25.83;;
84996;SDS011;75312;47.528;19.016;2024-02-26T00:45:22;29.17;;;27.27;;
84996;SDS011;75312;47.528;19.016;2024-02-26T00:45:52;28.20;;;26.67;;
84996;SDS011;75312;47.528;19.016;2024-02-26T00:46:23;27.57;;;26.20;;
84996;SDS011;75312;47.528;19.016;2024-02-26T00:46:53;26.57;;;25.37;;
84996;SDS011;75312;47.528;19.016;2024-02-26T00:47:24;27.47;;;26.17;;
84996;SDS011;75312;47.528;19.016;2024-02-26T00:47:55;26.90;;;25.43;;
84996;SDS011;75312;47.528;19.016;2024-02-26T00:48:27;27.83;;;26.13;;
84996;SDS011;75312;47.528;19.016;2024-02-26T00:49:00;26.40;;;24.47;;
84996;SDS011;75312;47.528;19.016;2024-02-26T00:49:31;27.20;;;25.20;;
84996;SDS011;75312;47.528;19.016;2024-02-26T00:50:07;26.23;;;24.30;;
84996;SDS011;75312;47.528;19.016;2024-02-26T00:50:38;25.13;;;23.43;;
84996;SDS011;75312;47.528;19.016;2024-02-26T00:51:09;26.13;;;24.57;;
84996;SDS011;75312;47.528;19.016;2024-02-26T00:51:39;26.97;;;25.27;;
84996;SDS011;75312;47.528;19.016;2024-02-26T00:52:12;26.90;;;25.07;;
84996;SDS011;75312;47.528;19.016;2024-02-26T00:52:43;26.60;;;25.00;;
84996;SDS011;75312;47.528;19.016;2024-02-26T00:53:13;26.67;;;24.90;;
84996;SDS011;75312;47.528;19.016;2024-02-26T00:53:44;27.37;;;25.43;;
84996;SDS011;75312;47.528;19.016;2024-02-26T00:54:14;26.83;;;25.00;;
84996;SDS011;75312;47.528;19.016;2024-02-26T00:54:47;25.07;;;23.47;;
84996;SDS011;75312;47.528;19.016;2024-02-26T00:55:18;25.43;;;23.83;;
84996;SDS011;75312;47.528;19.016;2024-02-26T00:55:53;26.70;;;25.00;;
84996;SDS011;75312;47.528;19.016;2024-02-26T00:56:24;26.60;;;24.97;;
84996;SDS011;75312;47.528;19.016;2024-02-26T00:56:54;26.77;;;25.03;;
84996;SDS011;75312;47.528;19.016;2024-02-26T00:57:27;25.50;;;24.03;;
84996;SDS011;75312;47.528;19.016;2024-02-26T00:57:58;26.00;;;24.40;;
84996;SDS011;75312;47.528;19.016;2024-02-26T00:58:31;26.57;;;24.83;;
84996;SDS011;75312;47.528;19.016;2024-02-26T00:59:02;25.37;;;23.80;;
84996;SDS011;75312;47.528;19.016;2024-02-26T00:59:33;24.93;;;23.23;;
84996;SDS011;75312;47.528;19.016;2024-02-26T01:00:12;24.27;;;22.83;;
84996;SDS011;75312;47.528;19.016;2024-02-26T01:00:45;23.90;;;22.43;;
84996;SDS011;75312;47.528;19.016;2024-02-26T01:01:15;23.87;;;22.77;;
84996;SDS011;75312;47.528;19.016;2024-02-26T01:01:46;25.07;;;23.77;;
84996;SDS011;75312;47.528;19.016;2024-02-26T01:02:17;26.33;;;24.57;;
84996;SDS011;75312;47.528;19.016;2024-02-26T01:02:47;25.87;;;23.57;;
84996;SDS011;75312;47.528;19.016;2024-02-26T01:03:20;25.07;;;23.20;;
84996;SDS011;75312;47.528;19.016;2024-02-26T01:03:51;25.07;;;23.40;;
84996;SDS011;75312;47.528;19.016;2024-02-26T01:04:23;24.60;;;23.20;;
84996;SDS011;75312;47.528;19.016;2024-02-26T01:04:54;23.87;;;22.53;;
84996;SDS011;75312;47.528;19.016;2024-02-26T01:05:25;23.53;;;22.27;;
84996;SDS011;75312;47.528;19.016;2024-02-26T01:05:55;24.13;;;22.77;;
84996;SDS011;75312;47.528;19.016;2024-02-26T01:06:28;23.90;;;22.47;;
84996;SDS011;75312;47.528;19.016;2024-02-26T01:07:04;23.90;;;22.43;;
84996;SDS011;75312;47.528;19.016;2024-02-26T01:07:37;23.43;;;22.20;;
84996;SDS011;75312;47.528;19.016;2024-02-26T01:08:11;22.90;;;21.77;;
84996;SDS011;75312;47.528;19.016;2024-02-26T01:08:41;23.47;;;22.20;;
84996;SDS011;75312;47.528;19.016;2024-02-26T01:09:12;23.77;;;22.33;;
84996;SDS011;75312;47.528;19.016;2024-02-26T01:09:43;25.07;;;23.53;;
84996;SDS011;75312;47.528;19.016;2024-02-26T01:10:13;25.87;;;24.10;;
84996;SDS011;75312;47.528;19.016;2024-02-26T01:10:44;25.07;;;23.50;;
84996;SDS011;75312;47.528;19.016;2024-02-26T01:11:14;24.83;;;23.20;;
84996;SDS011;75312;47.528;19.016;2024-02-26T01:11:45;24.53;;;23.00;;
84996;SDS011;75312;47.528;19.016;2024-02-26T01:12:17;23.27;;;21.67;;
84996;SDS011;75312;47.528;19.016;2024-02-26T01:12:47;23.20;;;21.67;;
84996;SDS011;75312;47.528;19.016;2024-02-26T01:13:21;22.27;;;20.87;;
84996;SDS011;75312;47.528;19.016;2024-02-26T01:13:51;23.47;;;21.93;;
84996;SDS011;75312;47.528;19.016;2024-02-26T01:14:26;24.50;;;23.03;;
84996;SDS011;75312;47.528;19.016;2024-02-26T01:14:57;23.83;;;22.13;;
84996;SDS011;75312;47.528;19.016;2024-02-26T01:15:30;23.10;;;21.33;;
84996;SDS011;75312;47.528;19.016;2024-02-26T01:16:02;23.50;;;21.93;;
84996;SDS011;75312;47.528;19.016;2024-02-26T01:16:33;23.20;;;21.73;;
84996;SDS011;75312;47.528;19.016;2024-02-26T01:17:04;23.40;;;21.70;;
84996;SDS011;75312;47.528;19.016;2024-02-26T01:17:37;23.03;;;21.30;;
84996;SDS011;75312;47.528;19.016;2024-02-26T01:18:08;22.27;;;20.77;;
84996;SDS011;75312;47.528;19.016;2024-02-26T01:18:39;23.27;;;21.67;;
84996;SDS011;75312;47.528;19.016;2024-02-26T01:19:10;24.10;;;22.13;;
84996;SDS011;75312;47.528;19.016;2024-02-26T01:19:40;24.57;;;22.67;;
84996;SDS011;75312;47.528;19.016;2024-02-26T01:20:11;24.47;;;22.73;;
84996;SDS011;75312;47.528;19.016;2024-02-26T01:20:44;23.73;;;22.17;;
84996;SDS011;75312;47.528;19.016;2024-02-26T01:21:14;23.33;;;21.83;;
84996;SDS011;75312;47.528;19.016;2024-02-26T01:21:45;23.77;;;22.33;;
84996;SDS011;75312;47.528;19.016;2024-02-26T01:22:17;22.83;;;21.50;;
84996;SDS011;75312;47.528;19.016;2024-02-26T01:22:48;22.73;;;21.43;;
84996;SDS011;75312;47.528;19.016;2024-02-26T01:23:18;23.20;;;22.00;;
84996;SDS011;75312;47.528;19.016;2024-02-26T01:23:49;22.90;;;21.63;;
84996;SDS011;75312;47.528;19.016;2024-02-26T01:24:19;22.90;;;21.43;;
84996;SDS011;75312;47.528;19.016;2024-02-26T01:24:53;24.20;;;22.33;;
84996;SDS011;75312;47.528;19.016;2024-02-26T01:25:23;23.63;;;21.80;;
84996;SDS011;75312;47.528;19.016;2024-02-26T01:25:54;22.47;;;20.87;;
84996;SDS011;75312;47.528;19.016;2024-02-26T01:26:28;23.37;;;21.97;;
84996;SDS011;75312;47.528;19.016;2024-02-26T01:27:01;22.77;;;21.63;;
84996;SDS011;75312;47.528;19.016;2024-02-26T01:27:32;22.23;;;21.40;;
84996;SDS011;75312;47.528;19.016;2024-02-26T01:28:04;21.27;;;20.77;;
84996;SDS011;75312;47.528;19.016;2024-02-26T01:28:35;22.87;;;21.97;;
84996;SDS011;75312;47.528;19.016;2024-02-26T01:29:06;22.93;;;21.63;;
84996;SDS011;75312;47.528;19.016;2024-02-26T01:29:37;22.20;;;20.83;;
84996;SDS011;75312;47.528;19.016;2024-02-26T01:30:07;22.10;;;20.67;;
84996;SDS011;75312;47.528;19.016;2024-02-26T01:30:40;22.40;;;20.93;;
84996;SDS011;75312;47.528;19.016;2024-02-26T01:31:11;23.17;;;21.60;;
84996;SDS011;75312;47.528;19.016;2024-02-26T01:31:44;23.73;;;22.10;;
84996;SDS011;75312;47.528;19.016;2024-02-26T01:32:14;23.20;;;21.83;;
84996;SDS011;75312;47.528;19.016;2024-02-26T01:32:45;22.13;;;21.03;;
84996;SDS011;75312;47.528;19.016;2024-02-26T01:33:16;22.03;;;20.90;;
84996;SDS011;75312;47.528;19.016;2024-02-26T01:33:46;22.87;;;21.73;;
84996;SDS011;75312;47.528;19.016;2024-02-26T01:34:17;22.87;;;21.83;;
84996;SDS011;75312;47.528;19.016;2024-02-26T01:34:48;22.47;;;21.33;;
84996;SDS011;75312;47.528;19.016;2024-02-26T01:35:19;21.37;;;20.27;;
84996;SDS011;75312;47.528;19.016;2024-02-26T01:35:50;21.47;;;20.20;;
84996;SDS011;75312;47.528;19.016;2024-02-26T01:36:23;20.97;;;19.80;;
84996;SDS011;75312;47.528;19.016;2024-02-26T01:36:53;22.00;;;20.83;;
84996;SDS011;75312;47.528;19.016;2024-02-26T01:37:26;21.03;;;19.90;;
84996;SDS011;75312;47.528;19.016;2024-02-26T01:37:56;22.23;;;21.07;;
84996;SDS011;75312;47.528;19.016;2024-02-26T01:38:29;23.00;;;21.80;;
84996;SDS011;75312;47.528;19.016;2024-02-26T01:39:00;23.17;;;21.73;;
84996;SDS011;75312;47.528;19.016;2024-02-26T01:39:30;21.27;;;20.17;;
84996;SDS011;75312;47.528;19.016;2024-02-26T01:40:01;22.93;;;21.53;;
84996;SDS011;75312;47.528;19.016;2024-02-26T01:40:34;22.37;;;20.83;;
84996;SDS011;75312;47.528;19.016;2024-02-26T01:41:04;22.27;;;20.93;;
84996;SDS011;75312;47.528;19.016;2024-02-26T01:41:35;22.53;;;21.07;;
84996;SDS011;75312;47.528;19.016;2024-02-26T01:42:08;22.70;;;21.30;;
84996;SDS011;75312;47.528;19.016;2024-02-26T01:42:38;22.47;;;21.17;;
84996;SDS011;75312;47.528;19.016;2024-02-26T01:43:11;22.70;;;21.47;;
84996;SDS011;75312;47.528;19.016;2024-02-26T01:43:42;22.50;;;21.27;;
84996;SDS011;75312;47.528;19.016;2024-02-26T01:44:15;22.27;;;21.00;;
84996;SDS011;75312;47.528;19.016;2024-02-26T01:44:45;23.13;;;21.83;;
84996;SDS011;75312;47.528;19.016;2024-02-26T01:45:18;24.90;;;23.57;;
84996;SDS011;75312;47.528;19.016;2024-02-26T01:45:54;23.23;;;22.13;;
84996;SDS011;75312;47.528;19.016;2024-02-26T01:46:25;22.70;;;21.53;;
84996;SDS011;75312;47.528;19.016;2024-02-26T01:46:58;22.67;;;21.63;;
84996;SDS011;75312;47.528;19.016;2024-02-26T01:47:33;22.87;;;21.77;;
84996;SDS011;75312;47.528;19.016;2024-02-26T01:48:06;23.67;;;22.43;;
84996;SDS011;75312;47.528;19.016;2024-02-26T01:48:38;23.57;;;22.20;;
84996;SDS011;75312;47.528;19.016;2024-02-26T01:49:08;23.47;;;21.87;;
84996;SDS011;75312;47.528;19.016;2024-02-26T01:49:45;24.70;;;23.03;;
84996;SDS011;75312;47.528;19.016;2024-02-26T01:50:16;23.37;;;21.87;;
84996;SDS011;75312;47.528;19.016;2024-02-26T01:50:48;22.00;;;20.80;;
84996;SDS011;75312;47.528;19.016;2024-02-26T01:51:19;22.33;;;21.13;;
84996;SDS011;75312;47.528;19.016;2024-02-26T01:51:52;22.93;;;21.63;;
84996;SDS011;75312;47.528;19.016;2024-02-26T01:52:27;23.03;;;21.80;;
84996;SDS011;75312;47.528;19.016;2024-02-26T01:53:02;21.80;;;20.67;;
84996;SDS011;75312;47.528;19.016;2024-02-26T01:53:33;22.20;;;21.07;;
84996;SDS011;75312;47.528;19.016;2024-02-26T01:54:04;20.93;;;19.87;;
84996;SDS011;75312;47.528;19.016;2024-02-26T01:54:38;21.40;;;20.40;;
84996;SDS011;75312;47.528;19.016;2024-02-26T01:55:10;22.77;;;21.60;;
84996;SDS011;75312;47.528;19.016;2024-02-26T01:55:41;22.93;;;21.53;;
84996;SDS011;75312;47.528;19.016;2024-02-26T01:56:12;22.50;;;21.20;;
84996;SDS011;75312;47.528;19.016;2024-02-26T01:56:45;22.13;;;20.87;;
84996;SDS011;75312;47.528;19.016;2024-02-26T01:57:16;22.57;;;21.40;;
84996;SDS011;75312;47.528;19.016;2024-02-26T01:57:48;22.37;;;20.93;;
84996;SDS011;75312;47.528;19.016;2024-02-26T01:58:21;22.63;;;21.07;;
84996;SDS011;75312;47.528;19.016;2024-02-26T01:58:53;22.60;;;21.17;;
84996;SDS011;75312;47.528;19.016;2024-02-26T01:59:26;23.00;;;21.50;;
84996;SDS011;75312;47.528;19.016;2024-02-26T02:00:00;23.60;;;21.63;;
84996;SDS011;75312;47.528;19.016;2024-02-26T02:00:30;23.53;;;21.67;;
84996;SDS011;75312;47.528;19.016;2024-02-26T02:01:02;23.87;;;22.27;;
84996;SDS011;75312;47.528;19.016;2024-02-26T02:01:34;22.60;;;21.33;;
84996;SDS011;75312;47.528;19.016;2024-02-26T02:02:06;22.40;;;21.37;;
84996;SDS011;75312;47.528;19.016;2024-02-26T02:02:39;22.33;;;21.37;;
84996;SDS011;75312;47.528;19.016;2024-02-26T02:03:11;22.27;;;21.37;;
84996;SDS011;75312;47.528;19.016;2024-02-26T02:03:42;23.73;;;22.63;;
84996;SDS011;75312;47.528;19.016;2024-02-26T02:04:16;23.70;;;22.50;;
84996;SDS011;75312;47.528;19.016;2024-02-26T02:04:47;22.23;;;21.27;;
84996;SDS011;75312;47.528;19.016;2024-02-26T02:05:17;22.40;;;21.43;;
84996;SDS011;75312;47.528;19.016;2024-02-26T02:05:51;22.20;;;21.03;;
84996;SDS011;75312;47.528;19.016;2024-02-26T02:06:27;24.07;;;22.67;;
84996;SDS011;75312;47.528;19.016;2024-02-26T02:06:58;24.23;;;22.63;;
84996;SDS011;75312;47.528;19.016;2024-02-26T02:07:30;24.93;;;23.23;;
84996;SDS011;75312;47.528;19.016;2024-02-26T02:08:04;24.40;;;22.83;;
84996;SDS011;75312;47.528;19.016;2024-02-26T02:08:35;23.63;;;22.40;;
84996;SDS011;75312;47.528;19.016;2024-02-26T02:09:09;23.53;;;22.50;;
84996;SDS011;75312;47.528;19.016;2024-02-26T02:09:39;23.77;;;22.73;;
84996;SDS011;75312;47.528;19.016;2024-02-26T02:10:16;23.67;;;22.50;;
84996;SDS011;75312;47.528;19.016;2024-02-26T02:10:51;23.57;;;22.23;;
84996;SDS011;75312;47.528;19.016;2024-02-26T02:11:21;24.50;;;23.17;;
84996;SDS011;75312;47.528;19.016;2024-02-26T02:11:55;24.70;;;23.43;;
84996;SDS011;75312;47.528;19.016;2024-02-26T02:12:28;23.50;;;22.40;;
84996;SDS011;75312;47.528;19.016;2024-02-26T02:12:58;24.87;;;23.57;;
84996;SDS011;75312;47.528;19.016;2024-02-26T02:13:29;23.73;;;22.30;;
84996;SDS011;75312;47.528;19.016;2024-02-26T02:14:02;22.87;;;21.63;;
84996;SDS011;75312;47.528;19.016;2024-02-26T02:14:33;24.50;;;23.17;;
84996;SDS011;75312;47.528;19.016;2024-02-26T02:15:06;25.27;;;23.77;;
84996;SDS011;75312;47.528;19.016;2024-02-26T02:15:37;24.77;;;23.20;;
84996;SDS011;75312;47.528;19.016;2024-02-26T02:16:10;23.47;;;22.20;;
84996;SDS011;75312;47.528;19.016;2024-02-26T02:16:41;24.57;;;23.23;;
84996;SDS011;75312;47.528;19.016;2024-02-26T02:17:11;24.60;;;23.30;;
84996;SDS011;75312;47.528;19.016;2024-02-26T02:17:44;24.70;;;23.87;;
84996;SDS011;75312;47.528;19.016;2024-02-26T02:18:17;23.87;;;22.87;;
84996;SDS011;75312;47.528;19.016;2024-02-26T02:18:49;24.00;;;22.73;;
84996;SDS011;75312;47.528;19.016;2024-02-26T02:19:22;24.23;;;22.87;;
84996;SDS011;75312;47.528;19.016;2024-02-26T02:19:52;25.20;;;23.87;;
84996;SDS011;75312;47.528;19.016;2024-02-26T02:20:24;25.63;;;24.47;;
84996;SDS011;75312;47.528;19.016;2024-02-26T02:21:04;24.03;;;23.03;;
84996;SDS011;75312;47.528;19.016;2024-02-26T02:21:37;24.57;;;23.33;;
84996;SDS011;75312;47.528;19.016;2024-02-26T02:22:07;23.73;;;22.43;;
84996;SDS011;75312;47.528;19.016;2024-02-26T02:22:40;24.67;;;23.13;;
84996;SDS011;75312;47.528;19.016;2024-02-26T02:23:11;25.77;;;24.10;;
84996;SDS011;75312;47.528;19.016;2024-02-26T02:23:44;24.73;;;23.40;;
84996;SDS011;75312;47.528;19.016;2024-02-26T02:24:16;24.10;;;23.00;;
84996;SDS011;75312;47.528;19.016;2024-02-26T02:24:49;24.77;;;23.53;;
84996;SDS011;75312;47.528;19.016;2024-02-26T02:25:21;24.67;;;23.50;;
84996;SDS011;75312;47.528;19.016;2024-02-26T02:25:52;24.27;;;23.03;;
84996;SDS011;75312;47.528;19.016;2024-02-26T02:26:26;25.90;;;24.10;;
84996;SDS011;75312;47.528;19.016;2024-02-26T02:26:57;26.20;;;24.37;;
84996;SDS011;75312;47.528;19.016;2024-02-26T02:27:27;25.87;;;24.07;;
84996;SDS011;75312;47.528;19.016;2024-02-26T02:28:02;23.93;;;22.57;;
84996;SDS011;75312;47.528;19.016;2024-02-26T02:28:33;25.60;;;24.10;;
84996;SDS011;75312;47.528;19.016;2024-02-26T02:29:05;25.10;;;23.63;;
84996;SDS011;75312;47.528;19.016;2024-02-26T02:29:37;25.73;;;24.43;;
84996;SDS011;75312;47.528;19.016;2024-02-26T02:30:08;25.90;;;24.23;;
84996;SDS011;75312;47.528;19.016;2024-02-26T02:30:39;25.27;;;23.70;;
84996;SDS011;75312;47.528;19.016;2024-02-26T02:31:13;26.40;;;24.97;;
84996;SDS011;75312;47.528;19.016;2024-02-26T02:31:45;25.63;;;24.47;;
84996;SDS011;75312;47.528;19.016;2024-02-26T02:32:16;25.63;;;24.27;;
84996;SDS011;75312;47.528;19.016;2024-02-26T02:32:48;26.30;;;24.77;;
84996;SDS011;75312;47.528;19.016;2024-02-26T02:33:21;25.83;;;24.50;;
84996;SDS011;75312;47.528;19.016;2024-02-26T02:33:56;25.43;;;24.03;;
84996;SDS011;75312;47.528;19.016;2024-02-26T02:34:27;25.10;;;23.60;;
84996;SDS011;75312;47.528;19.016;2024-02-26T02:34:58;24.73;;;23.37;;
84996;SDS011;75312;47.528;19.016;2024-02-26T02:35:29;24.17;;;22.73;;
84996;SDS011;75312;47.528;19.016;2024-02-26T02:36:00;23.80;;;22.37;;
84996;SDS011;75312;47.528;19.016;2024-02-26T02:36:33;25.60;;;24.23;;
84996;SDS011;75312;47.528;19.016;2024-02-26T02:37:06;24.33;;;23.10;;
84996;SDS011;75312;47.528;19.016;2024-02-26T02:37:38;25.53;;;24.20;;
84996;SDS011;75312;47.528;19.016;2024-02-26T02:38:09;24.97;;;23.63;;
84996;SDS011;75312;47.528;19.016;2024-02-26T02:38:48;25.63;;;24.33;;
84996;SDS011;75312;47.528;19.016;2024-02-26T02:39:21;26.47;;;25.23;;
84996;SDS011;75312;47.528;19.016;2024-02-26T02:39:55;25.67;;;24.40;;
84996;SDS011;75312;47.528;19.016;2024-02-26T02:40:27;26.33;;;24.93;;
84996;SDS011;75312;47.528;19.016;2024-02-26T02:40:58;26.53;;;25.10;;
84996;SDS011;75312;47.528;19.016;2024-02-26T02:41:28;25.90;;;24.53;;
84996;SDS011;75312;47.528;19.016;2024-02-26T02:42:00;25.63;;;24.33;;
84996;SDS011;75312;47.528;19.016;2024-02-26T02:42:33;26.17;;;24.80;;
84996;SDS011;75312;47.528;19.016;2024-02-26T02:43:03;26.10;;;24.80;;
84996;SDS011;75312;47.528;19.016;2024-02-26T02:43:36;25.50;;;24.13;;
84996;SDS011;75312;47.528;19.016;2024-02-26T02:44:07;24.20;;;23.10;;
84996;SDS011;75312;47.528;19.016;2024-02-26T02:44:37;24.90;;;23.87;;
84996;SDS011;75312;47.528;19.016;2024-02-26T02:45:10;25.13;;;24.00;;
84996;SDS011;75312;47.528;19.016;2024-02-26T02:45:43;24.63;;;23.23;;
84996;SDS011;75312;47.528;19.016;2024-02-26T02:46:13;24.73;;;23.40;;
84996;SDS011;75312;47.528;19.016;2024-02-26T02:46:44;24.70;;;23.43;;
84996;SDS011;75312;47.528;19.016;2024-02-26T02:47:15;25.40;;;24.10;;
84996;SDS011;75312;47.528;19.016;2024-02-26T02:47:45;26.50;;;25.23;;
84996;SDS011;75312;47.528;19.016;2024-02-26T02:48:18;26.70;;;25.40;;
84996;SDS011;75312;47.528;19.016;2024-02-26T02:48:48;27.10;;;25.50;;
84996;SDS011;75312;47.528;19.016;2024-02-26T02:49:19;27.37;;;25.97;;
84996;SDS011;75312;47.528;19.016;2024-02-26T02:49:50;27.30;;;26.03;;
84996;SDS011;75312;47.528;19.016;2024-02-26T02:50:23;26.10;;;24.97;;
84996;SDS011;75312;47.528;19.016;2024-02-26T02:50:53;26.03;;;24.90;;
84996;SDS011;75312;47.528;19.016;2024-02-26T02:51:24;25.23;;;24.03;;
84996;SDS011;75312;47.528;19.016;2024-02-26T02:51:57;26.57;;;25.27;;
84996;SDS011;75312;47.528;19.016;2024-02-26T02:52:31;27.73;;;26.17;;
84996;SDS011;75312;47.528;19.016;2024-02-26T02:53:04;27.50;;;25.97;;
84996;SDS011;75312;47.528;19.016;2024-02-26T02:53:35;28.03;;;26.67;;
84996;SDS011;75312;47.528;19.016;2024-02-26T02:54:08;26.23;;;24.83;;
84996;SDS011;75312;47.528;19.016;2024-02-26T02:54:38;27.50;;;25.97;;
84996;SDS011;75312;47.528;19.016;2024-02-26T02:55:12;26.97;;;25.57;;
84996;SDS011;75312;47.528;19.016;2024-02-26T02:55:42;26.97;;;25.50;;
84996;SDS011;75312;47.528;19.016;2024-02-26T02:56:13;26.47;;;24.97;;
84996;SDS011;75312;47.528;19.016;2024-02-26T02:56:46;26.40;;;24.70;;
84996;SDS011;75312;47.528;19.016;2024-02-26T02:57:16;26.53;;;24.83;;
84996;SDS011;75312;47.528;19.016;2024-02-26T02:57:47;27.97;;;26.17;;
84996;SDS011;75312;47.528;19.016;2024-02-26T02:58:17;28.40;;;26.53;;
84996;SDS011;75312;47.528;19.016;2024-02-26T02:58:53;29.27;;;27.43;;
84996;SDS011;75312;47.528;19.016;2024-02-26T02:59:23;26.83;;;25.40;;
84996;SDS011;75312;47.528;19.016;2024-02-26T02:59:59;26.77;;;25.20;;
84996;SDS011;75312;47.528;19.016;2024-02-26T03:00:32;26.70;;;25.17;;
84996;SDS011;75312;47.528;19.016;2024-02-26T03:01:03;26.60;;;25.23;;
84996;SDS011;75312;47.528;19.016;2024-02-26T03:01:33;27.73;;;26.30;;
84996;SDS011;75312;47.528;19.016;2024-02-26T03:02:04;27.67;;;25.93;;
84996;SDS011;75312;47.528;19.016;2024-02-26T03:02:35;27.93;;;25.83;;
84996;SDS011;75312;47.528;19.016;2024-02-26T03:03:11;29.03;;;26.90;;
84996;SDS011;75312;47.528;19.016;2024-02-26T03:03:44;28.50;;;26.40;;